sensor_id;sensor_type;location;lat;lon;timestamp;P1;durP1;ratioP1;P2;durP2;ratioP2
53890;SDS011;41337;51.400;-2.342;2022-09-09T00:02:17;10.18;;;4.82;;
53890;SDS011;41337;51.400;-2.342;2022-09-09T00:07:32;10.35;;;5.63;;
53890;SDS011;41337;51.400;-2.342;2022-09-09T00:13:01;7.57;;;5.97;;
53890;SDS011;41337;51.400;-2.342;2022-09-09T00:23:34;14.43;;;9.48;;
53890;SDS011;41337;51.400;-2.342;2022-09-09T00:28:41;11.65;;;9.13;;
53890;SDS011;41337;51.400;-2.342;2022-09-09T00:33:53;13.10;;;9.95;;
53890;SDS011;41337;51.400;-2.342;2022-09-09T00:44:32;14.63;;;10.35;;
53890;SDS011;41337;51.400;-2.342;2022-09-09T00:55:42;15.07;;;11.00;;
53890;SDS011;41337;51.400;-2.342;2022-09-09T01:00:57;15.43;;;10.30;;
53890;SDS011;41337;51.400;-2.342;2022-09-09T01:17:01;10.82;;;7.97;;
53890;SDS011;41337;51.400;-2.342;2022-09-09T01:27:53;7.70;;;5.78;;
53890;SDS011;41337;51.400;-2.342;2022-09-09T01:33:01;6.70;;;5.20;;
53890;SDS011;41337;51.400;-2.342;2022-09-09T01:38:02;9.48;;;5.57;;
53890;SDS011;41337;51.400;-2.342;2022-09-09T01:43:04;11.18;;;6.28;;
53890;SDS011;41337;51.400;-2.342;2022-09-09T01:48:09;6.70;;;5.45;;
53890;SDS011;41337;51.400;-2.342;2022-09-09T01:53:10;6.60;;;5.78;;
53890;SDS011;41337;51.400;-2.342;2022-09-09T02:03:27;10.15;;;6.47;;
53890;SDS011;41337;51.400;-2.342;2022-09-09T02:08:40;7.43;;;6.35;;
53890;SDS011;41337;51.400;-2.342;2022-09-09T02:13:46;9.45;;;6.75;;
53890;SDS011;41337;51.400;-2.342;2022-09-09T02:24:13;7.88;;;4.78;;
53890;SDS011;41337;51.400;-2.342;2022-09-09T02:29:20;8.60;;;4.85;;
53890;SDS011;41337;51.400;-2.342;2022-09-09T02:39:49;6.70;;;5.18;;
53890;SDS011;41337;51.400;-2.342;2022-09-09T02:44:49;7.68;;;5.72;;
53890;SDS011;41337;51.400;-2.342;2022-09-09T03:00:37;9.50;;;4.65;;
53890;SDS011;41337;51.400;-2.342;2022-09-09T03:05:39;7.57;;;3.72;;
53890;SDS011;41337;51.400;-2.342;2022-09-09T03:10:40;5.55;;;2.97;;
53890;SDS011;41337;51.400;-2.342;2022-09-09T03:15:41;3.92;;;2.75;;
53890;SDS011;41337;51.400;-2.342;2022-09-09T03:20:42;4.47;;;2.60;;
53890;SDS011;41337;51.400;-2.342;2022-09-09T03:25:47;3.65;;;2.55;;
53890;SDS011;41337;51.400;-2.342;2022-09-09T03:30:51;2.90;;;2.30;;
53890;SDS011;41337;51.400;-2.342;2022-09-09T03:35:52;5.68;;;2.63;;
53890;SDS011;41337;51.400;-2.342;2022-09-09T03:40:53;4.07;;;2.10;;
53890;SDS011;41337;51.400;-2.342;2022-09-09T03:45:55;4.72;;;2.40;;
53890;SDS011;41337;51.400;-2.342;2022-09-09T03:51:02;2.30;;;2.08;;
53890;SDS011;41337;51.400;-2.342;2022-09-09T03:56:03;3.03;;;2.45;;
53890;SDS011;41337;51.400;-2.342;2022-09-09T04:01:11;11.68;;;2.65;;
53890;SDS011;41337;51.400;-2.342;2022-09-09T04:06:15;4.53;;;2.28;;
53890;SDS011;41337;51.400;-2.342;2022-09-09T04:11:17;5.43;;;2.25;;
53890;SDS011;41337;51.400;-2.342;2022-09-09T04:16:18;5.20;;;2.60;;
53890;SDS011;41337;51.400;-2.342;2022-09-09T04:21:20;5.18;;;2.55;;
53890;SDS011;41337;51.400;-2.342;2022-09-09T04:26:26;3.35;;;2.28;;
53890;SDS011;41337;51.400;-2.342;2022-09-09T04:31:27;8.18;;;2.13;;
53890;SDS011;41337;51.400;-2.342;2022-09-09T04:36:28;6.80;;;2.03;;
53890;SDS011;41337;51.400;-2.342;2022-09-09T04:41:29;3.42;;;2.38;;
53890;SDS011;41337;51.400;-2.342;2022-09-09T04:46:31;4.95;;;2.08;;
53890;SDS011;41337;51.400;-2.342;2022-09-09T04:51:39;4.30;;;2.55;;
53890;SDS011;41337;51.400;-2.342;2022-09-09T04:56:39;13.30;;;2.88;;
53890;SDS011;41337;51.400;-2.342;2022-09-09T05:01:43;5.15;;;2.13;;
53890;SDS011;41337;51.400;-2.342;2022-09-09T05:06:44;5.57;;;1.98;;
53890;SDS011;41337;51.400;-2.342;2022-09-09T05:11:46;5.63;;;1.92;;
53890;SDS011;41337;51.400;-2.342;2022-09-09T05:16:53;6.13;;;1.80;;
53890;SDS011;41337;51.400;-2.342;2022-09-09T05:21:53;4.03;;;1.70;;
53890;SDS011;41337;51.400;-2.342;2022-09-09T05:26:54;6.50;;;1.90;;
53890;SDS011;41337;51.400;-2.342;2022-09-09T05:31:58;3.40;;;1.95;;
53890;SDS011;41337;51.400;-2.342;2022-09-09T05:37:03;4.72;;;1.80;;
53890;SDS011;41337;51.400;-2.342;2022-09-09T05:42:04;6.45;;;1.42;;
53890;SDS011;41337;51.400;-2.342;2022-09-09T05:47:05;3.30;;;1.45;;
53890;SDS011;41337;51.400;-2.342;2022-09-09T05:52:08;4.38;;;1.27;;
53890;SDS011;41337;51.400;-2.342;2022-09-09T05:57:09;2.38;;;1.35;;
53890;SDS011;41337;51.400;-2.342;2022-09-09T06:02:10;2.97;;;1.20;;
53890;SDS011;41337;51.400;-2.342;2022-09-09T06:07:12;3.20;;;0.98;;
53890;SDS011;41337;51.400;-2.342;2022-09-09T06:12:20;5.55;;;1.00;;
53890;SDS011;41337;51.400;-2.342;2022-09-09T06:17:21;2.20;;;0.85;;
53890;SDS011;41337;51.400;-2.342;2022-09-09T06:22:21;6.07;;;1.10;;
53890;SDS011;41337;51.400;-2.342;2022-09-09T06:27:22;5.70;;;1.02;;
53890;SDS011;41337;51.400;-2.342;2022-09-09T06:32:23;3.45;;;0.80;;
53890;SDS011;41337;51.400;-2.342;2022-09-09T06:37:25;5.25;;;1.17;;
53890;SDS011;41337;51.400;-2.342;2022-09-09T06:42:27;2.70;;;0.90;;
53890;SDS011;41337;51.400;-2.342;2022-09-09T06:47:32;3.80;;;1.25;;
53890;SDS011;41337;51.400;-2.342;2022-09-09T06:52:33;2.83;;;1.58;;
53890;SDS011;41337;51.400;-2.342;2022-09-09T06:57:34;3.13;;;1.30;;
53890;SDS011;41337;51.400;-2.342;2022-09-09T07:02:35;3.05;;;1.40;;
53890;SDS011;41337;51.400;-2.342;2022-09-09T07:07:39;2.92;;;1.23;;
53890;SDS011;41337;51.400;-2.342;2022-09-09T07:12:39;4.30;;;1.25;;
53890;SDS011;41337;51.400;-2.342;2022-09-09T07:17:40;4.80;;;1.23;;
53890;SDS011;41337;51.400;-2.342;2022-09-09T07:22:41;4.72;;;1.40;;
53890;SDS011;41337;51.400;-2.342;2022-09-09T07:27:42;6.47;;;1.70;;
53890;SDS011;41337;51.400;-2.342;2022-09-09T07:32:42;2.83;;;1.30;;
53890;SDS011;41337;51.400;-2.342;2022-09-09T07:37:43;6.25;;;1.45;;
53890;SDS011;41337;51.400;-2.342;2022-09-09T07:42:51;5.43;;;1.48;;
53890;SDS011;41337;51.400;-2.342;2022-09-09T07:47:52;2.33;;;1.27;;
53890;SDS011;41337;51.400;-2.342;2022-09-09T07:52:53;4.75;;;1.92;;
53890;SDS011;41337;51.400;-2.342;2022-09-09T07:57:53;9.90;;;2.10;;
53890;SDS011;41337;51.400;-2.342;2022-09-09T08:02:55;8.52;;;1.73;;
53890;SDS011;41337;51.400;-2.342;2022-09-09T08:07:56;6.22;;;2.00;;
53890;SDS011;41337;51.400;-2.342;2022-09-09T08:12:57;5.93;;;1.33;;
53890;SDS011;41337;51.400;-2.342;2022-09-09T08:17:58;4.00;;;1.45;;
53890;SDS011;41337;51.400;-2.342;2022-09-09T08:22:59;8.10;;;2.15;;
53890;SDS011;41337;51.400;-2.342;2022-09-09T08:27:59;5.90;;;1.17;;
53890;SDS011;41337;51.400;-2.342;2022-09-09T08:33:00;3.92;;;1.13;;
53890;SDS011;41337;51.400;-2.342;2022-09-09T08:38:01;3.03;;;0.88;;
53890;SDS011;41337;51.400;-2.342;2022-09-09T08:43:02;3.67;;;0.70;;
53890;SDS011;41337;51.400;-2.342;2022-09-09T08:53:42;3.55;;;0.70;;
53890;SDS011;41337;51.400;-2.342;2022-09-09T08:58:50;1.92;;;0.77;;
53890;SDS011;41337;51.400;-2.342;2022-09-09T09:14:25;1.67;;;0.63;;
53890;SDS011;41337;51.400;-2.342;2022-09-09T09:19:27;3.00;;;0.80;;
53890;SDS011;41337;51.400;-2.342;2022-09-09T09:24:49;0.95;;;0.50;;
53890;SDS011;41337;51.400;-2.342;2022-09-09T09:29:56;1.63;;;0.60;;
53890;SDS011;41337;51.400;-2.342;2022-09-09T09:34:59;1.45;;;0.70;;
53890;SDS011;41337;51.400;-2.342;2022-09-09T09:40:18;1.50;;;0.60;;
53890;SDS011;41337;51.400;-2.342;2022-09-09T09:45:26;3.45;;;0.60;;
53890;SDS011;41337;51.400;-2.342;2022-09-09T09:50:34;1.17;;;0.80;;
53890;SDS011;41337;51.400;-2.342;2022-09-09T09:55:35;1.58;;;0.82;;
53890;SDS011;41337;51.400;-2.342;2022-09-09T10:00:59;1.55;;;0.70;;
53890;SDS011;41337;51.400;-2.342;2022-09-09T10:06:04;2.97;;;1.30;;
53890;SDS011;41337;51.400;-2.342;2022-09-09T10:11:22;3.85;;;2.00;;
53890;SDS011;41337;51.400;-2.342;2022-09-09T10:42:53;4.40;;;0.60;;
53890;SDS011;41337;51.400;-2.342;2022-09-09T10:48:13;1.33;;;0.60;;
53890;SDS011;41337;51.400;-2.342;2022-09-09T11:03:52;2.05;;;0.50;;
53890;SDS011;41337;51.400;-2.342;2022-09-09T11:09:00;4.22;;;0.50;;
53890;SDS011;41337;51.400;-2.342;2022-09-09T11:14:09;0.88;;;0.47;;
53890;SDS011;41337;51.400;-2.342;2022-09-09T11:45:08;1.50;;;0.80;;
53890;SDS011;41337;51.400;-2.342;2022-09-09T11:50:30;0.90;;;0.70;;
53890;SDS011;41337;51.400;-2.342;2022-09-09T11:55:37;1.13;;;0.40;;
53890;SDS011;41337;51.400;-2.342;2022-09-09T12:00:39;4.72;;;0.63;;
53890;SDS011;41337;51.400;-2.342;2022-09-09T12:05:44;0.70;;;0.40;;
53890;SDS011;41337;51.400;-2.342;2022-09-09T12:10:53;0.77;;;0.70;;
53890;SDS011;41337;51.400;-2.342;2022-09-09T12:15:56;1.33;;;0.60;;
53890;SDS011;41337;51.400;-2.342;2022-09-09T12:26:56;1.65;;;0.65;;
53890;SDS011;41337;51.400;-2.342;2022-09-09T12:32:11;2.78;;;0.60;;
53890;SDS011;41337;51.400;-2.342;2022-09-09T12:42:47;2.33;;;0.90;;
53890;SDS011;41337;51.400;-2.342;2022-09-09T12:47:49;3.13;;;1.02;;
53890;SDS011;41337;51.400;-2.342;2022-09-09T12:53:08;1.48;;;1.38;;
53890;SDS011;41337;51.400;-2.342;2022-09-09T12:58:32;1.75;;;0.80;;
53890;SDS011;41337;51.400;-2.342;2022-09-09T13:03:33;2.33;;;1.00;;
53890;SDS011;41337;51.400;-2.342;2022-09-09T13:08:43;5.10;;;1.60;;
53890;SDS011;41337;51.400;-2.342;2022-09-09T13:13:43;1.83;;;0.82;;
53890;SDS011;41337;51.400;-2.342;2022-09-09T13:18:52;2.05;;;0.80;;
53890;SDS011;41337;51.400;-2.342;2022-09-09T13:23:53;1.40;;;0.80;;
53890;SDS011;41337;51.400;-2.342;2022-09-09T13:28:54;1.42;;;0.60;;
53890;SDS011;41337;51.400;-2.342;2022-09-09T13:34:12;0.95;;;0.40;;
53890;SDS011;41337;51.400;-2.342;2022-09-09T13:39:20;2.78;;;1.20;;
53890;SDS011;41337;51.400;-2.342;2022-09-09T13:44:39;2.05;;;0.90;;
53890;SDS011;41337;51.400;-2.342;2022-09-09T13:49:41;2.15;;;0.70;;
53890;SDS011;41337;51.400;-2.342;2022-09-09T13:54:46;1.00;;;0.90;;
53890;SDS011;41337;51.400;-2.342;2022-09-09T13:59:52;0.80;;;0.80;;
53890;SDS011;41337;51.400;-2.342;2022-09-09T14:04:58;3.50;;;1.08;;
53890;SDS011;41337;51.400;-2.342;2022-09-09T14:09:58;2.90;;;0.80;;
53890;SDS011;41337;51.400;-2.342;2022-09-09T14:15:00;1.27;;;0.63;;
53890;SDS011;41337;51.400;-2.342;2022-09-09T14:20:02;2.60;;;1.00;;
53890;SDS011;41337;51.400;-2.342;2022-09-09T14:30:09;1.83;;;0.98;;
53890;SDS011;41337;51.400;-2.342;2022-09-09T14:35:10;0.95;;;0.75;;
53890;SDS011;41337;51.400;-2.342;2022-09-09T14:40:12;3.55;;;1.35;;
53890;SDS011;41337;51.400;-2.342;2022-09-09T14:45:17;3.67;;;1.38;;
53890;SDS011;41337;51.400;-2.342;2022-09-09T14:50:18;3.35;;;1.42;;
53890;SDS011;41337;51.400;-2.342;2022-09-09T14:55:19;2.47;;;0.90;;
53890;SDS011;41337;51.400;-2.342;2022-09-09T15:00:21;1.15;;;0.98;;
53890;SDS011;41337;51.400;-2.342;2022-09-09T15:05:22;1.38;;;0.80;;
53890;SDS011;41337;51.400;-2.342;2022-09-09T15:10:25;0.82;;;0.50;;
53890;SDS011;41337;51.400;-2.342;2022-09-09T15:15:31;2.03;;;0.93;;
53890;SDS011;41337;51.400;-2.342;2022-09-09T15:20:35;1.17;;;1.00;;
53890;SDS011;41337;51.400;-2.342;2022-09-09T15:25:37;3.92;;;0.75;;
53890;SDS011;41337;51.400;-2.342;2022-09-09T15:30:38;0.80;;;0.60;;
53890;SDS011;41337;51.400;-2.342;2022-09-09T15:35:39;0.73;;;0.30;;
53890;SDS011;41337;51.400;-2.342;2022-09-09T15:40:40;2.53;;;0.47;;
53890;SDS011;41337;51.400;-2.342;2022-09-09T15:45:41;3.92;;;0.57;;
53890;SDS011;41337;51.400;-2.342;2022-09-09T15:50:41;0.88;;;0.52;;
53890;SDS011;41337;51.400;-2.342;2022-09-09T15:55:42;3.90;;;0.50;;
53890;SDS011;41337;51.400;-2.342;2022-09-09T16:00:44;3.08;;;0.80;;
53890;SDS011;41337;51.400;-2.342;2022-09-09T16:05:50;1.85;;;0.80;;
53890;SDS011;41337;51.400;-2.342;2022-09-09T16:10:51;2.28;;;0.60;;
53890;SDS011;41337;51.400;-2.342;2022-09-09T16:15:55;2.45;;;0.77;;
53890;SDS011;41337;51.400;-2.342;2022-09-09T16:20:56;4.20;;;1.08;;
53890;SDS011;41337;51.400;-2.342;2022-09-09T16:26:01;2.35;;;0.70;;
53890;SDS011;41337;51.400;-2.342;2022-09-09T16:31:06;1.15;;;0.60;;
53890;SDS011;41337;51.400;-2.342;2022-09-09T16:36:19;3.25;;;0.90;;
53890;SDS011;41337;51.400;-2.342;2022-09-09T16:41:30;1.33;;;0.80;;
53890;SDS011;41337;51.400;-2.342;2022-09-09T16:46:33;3.25;;;0.70;;
53890;SDS011;41337;51.400;-2.342;2022-09-09T16:51:41;1.98;;;0.47;;
53890;SDS011;41337;51.400;-2.342;2022-09-09T16:56:45;3.30;;;0.70;;
53890;SDS011;41337;51.400;-2.342;2022-09-09T17:01:49;2.00;;;0.88;;
53890;SDS011;41337;51.400;-2.342;2022-09-09T17:06:52;2.10;;;0.50;;
53890;SDS011;41337;51.400;-2.342;2022-09-09T17:11:57;0.95;;;0.38;;
53890;SDS011;41337;51.400;-2.342;2022-09-09T17:16:58;2.22;;;0.60;;
53890;SDS011;41337;51.400;-2.342;2022-09-09T17:22:00;2.72;;;0.60;;
53890;SDS011;41337;51.400;-2.342;2022-09-09T17:27:01;0.98;;;0.57;;
53890;SDS011;41337;51.400;-2.342;2022-09-09T17:32:02;1.27;;;0.50;;
53890;SDS011;41337;51.400;-2.342;2022-09-09T17:37:05;2.15;;;0.80;;
53890;SDS011;41337;51.400;-2.342;2022-09-09T17:42:09;1.95;;;0.70;;
53890;SDS011;41337;51.400;-2.342;2022-09-09T17:47:10;1.83;;;0.93;;
53890;SDS011;41337;51.400;-2.342;2022-09-09T17:52:11;9.63;;;1.83;;
53890;SDS011;41337;51.400;-2.342;2022-09-09T17:57:12;4.05;;;0.93;;
53890;SDS011;41337;51.400;-2.342;2022-09-09T18:02:13;2.50;;;0.90;;
53890;SDS011;41337;51.400;-2.342;2022-09-09T18:07:14;2.05;;;1.33;;
53890;SDS011;41337;51.400;-2.342;2022-09-09T18:12:19;2.75;;;1.67;;
53890;SDS011;41337;51.400;-2.342;2022-09-09T18:17:20;3.60;;;1.38;;
53890;SDS011;41337;51.400;-2.342;2022-09-09T18:22:21;4.60;;;1.38;;
53890;SDS011;41337;51.400;-2.342;2022-09-09T18:27:22;4.97;;;1.85;;
53890;SDS011;41337;51.400;-2.342;2022-09-09T18:32:23;4.25;;;1.70;;
53890;SDS011;41337;51.400;-2.342;2022-09-09T18:37:24;3.75;;;1.50;;
53890;SDS011;41337;51.400;-2.342;2022-09-09T18:42:25;2.35;;;1.60;;
53890;SDS011;41337;51.400;-2.342;2022-09-09T18:47:29;6.70;;;2.20;;
53890;SDS011;41337;51.400;-2.342;2022-09-09T18:52:30;1.70;;;1.60;;
53890;SDS011;41337;51.400;-2.342;2022-09-09T18:57:31;5.13;;;1.70;;
53890;SDS011;41337;51.400;-2.342;2022-09-09T19:02:32;2.30;;;1.60;;
53890;SDS011;41337;51.400;-2.342;2022-09-09T19:07:33;3.97;;;1.67;;
53890;SDS011;41337;51.400;-2.342;2022-09-09T19:12:33;2.40;;;1.40;;
53890;SDS011;41337;51.400;-2.342;2022-09-09T19:17:34;1.33;;;1.05;;
53890;SDS011;41337;51.400;-2.342;2022-09-09T19:22:35;2.40;;;1.30;;
53890;SDS011;41337;51.400;-2.342;2022-09-09T19:27:36;3.83;;;1.10;;
53890;SDS011;41337;51.400;-2.342;2022-09-09T19:32:37;1.48;;;0.98;;
53890;SDS011;41337;51.400;-2.342;2022-09-09T19:37:39;1.38;;;1.02;;
53890;SDS011;41337;51.400;-2.342;2022-09-09T19:42:41;1.90;;;1.02;;
53890;SDS011;41337;51.400;-2.342;2022-09-09T19:47:45;2.35;;;1.30;;
53890;SDS011;41337;51.400;-2.342;2022-09-09T19:52:46;1.55;;;0.70;;
53890;SDS011;41337;51.400;-2.342;2022-09-09T19:57:47;3.53;;;2.92;;
53890;SDS011;41337;51.400;-2.342;2022-09-09T20:02:48;2.55;;;1.08;;
53890;SDS011;41337;51.400;-2.342;2022-09-09T20:07:50;3.30;;;0.85;;
53890;SDS011;41337;51.400;-2.342;2022-09-09T20:12:51;1.30;;;0.90;;
53890;SDS011;41337;51.400;-2.342;2022-09-09T20:17:57;1.08;;;0.90;;
53890;SDS011;41337;51.400;-2.342;2022-09-09T20:22:58;0.88;;;0.88;;
53890;SDS011;41337;51.400;-2.342;2022-09-09T20:27:59;1.90;;;0.88;;
53890;SDS011;41337;51.400;-2.342;2022-09-09T20:33:00;1.17;;;0.75;;
53890;SDS011;41337;51.400;-2.342;2022-09-09T20:38:01;1.15;;;0.90;;
53890;SDS011;41337;51.400;-2.342;2022-09-09T20:43:02;0.93;;;0.80;;
53890;SDS011;41337;51.400;-2.342;2022-09-09T20:48:10;2.15;;;1.00;;
53890;SDS011;41337;51.400;-2.342;2022-09-09T20:53:10;1.45;;;0.88;;
53890;SDS011;41337;51.400;-2.342;2022-09-09T20:58:11;1.00;;;1.00;;
53890;SDS011;41337;51.400;-2.342;2022-09-09T21:03:12;3.92;;;1.20;;
53890;SDS011;41337;51.400;-2.342;2022-09-09T21:08:13;1.88;;;1.17;;
53890;SDS011;41337;51.400;-2.342;2022-09-09T21:13:14;1.58;;;1.48;;
53890;SDS011;41337;51.400;-2.342;2022-09-09T21:18:17;1.63;;;1.27;;
53890;SDS011;41337;51.400;-2.342;2022-09-09T21:23:22;1.35;;;1.20;;
53890;SDS011;41337;51.400;-2.342;2022-09-09T21:28:23;1.83;;;1.25;;
53890;SDS011;41337;51.400;-2.342;2022-09-09T21:33:33;2.58;;;1.20;;
53890;SDS011;41337;51.400;-2.342;2022-09-09T21:38:34;1.70;;;1.30;;
53890;SDS011;41337;51.400;-2.342;2022-09-09T21:43:35;2.97;;;1.30;;
53890;SDS011;41337;51.400;-2.342;2022-09-09T21:48:37;3.40;;;1.63;;
53890;SDS011;41337;51.400;-2.342;2022-09-09T21:53:41;4.82;;;2.15;;
53890;SDS011;41337;51.400;-2.342;2022-09-09T21:58:42;4.75;;;1.60;;
53890;SDS011;41337;51.400;-2.342;2022-09-09T22:03:43;4.50;;;1.80;;
53890;SDS011;41337;51.400;-2.342;2022-09-09T22:08:45;1.83;;;1.65;;
53890;SDS011;41337;51.400;-2.342;2022-09-09T22:13:46;6.15;;;1.90;;
53890;SDS011;41337;51.400;-2.342;2022-09-09T22:18:54;2.47;;;2.28;;
53890;SDS011;41337;51.400;-2.342;2022-09-09T22:23:57;2.63;;;2.30;;
53890;SDS011;41337;51.400;-2.342;2022-09-09T22:29:05;4.43;;;2.92;;
53890;SDS011;41337;51.400;-2.342;2022-09-09T22:34:06;3.95;;;2.85;;
53890;SDS011;41337;51.400;-2.342;2022-09-09T22:39:07;3.60;;;2.20;;
53890;SDS011;41337;51.400;-2.342;2022-09-09T22:44:08;3.83;;;2.70;;
53890;SDS011;41337;51.400;-2.342;2022-09-09T22:49:09;2.30;;;1.73;;
53890;SDS011;41337;51.400;-2.342;2022-09-09T22:54:11;4.47;;;2.00;;
53890;SDS011;41337;51.400;-2.342;2022-09-09T22:59:21;5.50;;;2.47;;
53890;SDS011;41337;51.400;-2.342;2022-09-09T23:04:25;3.53;;;2.75;;
53890;SDS011;41337;51.400;-2.342;2022-09-09T23:09:26;3.08;;;2.88;;
53890;SDS011;41337;51.400;-2.342;2022-09-09T23:14:28;4.43;;;2.97;;
53890;SDS011;41337;51.400;-2.342;2022-09-09T23:19:36;3.88;;;3.58;;
53890;SDS011;41337;51.400;-2.342;2022-09-09T23:24:36;6.55;;;2.92;;
53890;SDS011;41337;51.400;-2.342;2022-09-09T23:29:37;4.05;;;3.30;;
53890;SDS011;41337;51.400;-2.342;2022-09-09T23:34:38;5.10;;;3.35;;
53890;SDS011;41337;51.400;-2.342;2022-09-09T23:39:39;4.50;;;3.63;;
53890;SDS011;41337;51.400;-2.342;2022-09-09T23:44:40;5.10;;;4.47;;
53890;SDS011;41337;51.400;-2.342;2022-09-09T23:49:41;5.78;;;4.43;;
53890;SDS011;41337;51.400;-2.342;2022-09-09T23:54:43;4.72;;;4.20;;
53890;SDS011;41337;51.400;-2.342;2022-09-09T23:59:49;8.88;;;5.40;;
